Time;durP1;ratioP1;P1;durP2;ratioP2;P2;SDS_P1;SDS_P2;PMS_P1;PMS_P2;Temp;Humidity;BMP_temperature;BMP_pressure;BME280_temperature;BME280_humidity;BME280_pressure;Samples;Min_cycle;Max_cycle;Signal;HPM_P1;HPM_P2
2021/01/29 00:00:29;;;;;;;5.77;4;;;5.4;99.9;;;;;;;;;
2021/01/29 00:01:02;;;;;;;5.77;4;;;5.4;99.9;;;;;;;;;
2021/01/29 00:02:02;;;;;;;5;4.2;;;5.3;99.9;;;;;;;;;
2021/01/29 00:02:42;;;;;;;5.1;3.97;;;5.3;99.9;;;;;;;;;
2021/01/29 00:03:02;;;;;;;5.1;3.97;;;5.3;99.9;;;;;;;;;
2021/01/29 00:03:13;;;;;;;5.1;3.97;;;5.3;99.9;;;;;;;;;
2021/01/29 00:04:02;;;;;;;5.97;4.43;;;5.2;99.9;;;;;;;;;
2021/01/29 00:04:14;;;;;;;5.97;4.43;;;5.2;99.9;;;;;;;;;
2021/01/29 00:04:55;;;;;;;4.63;3.8;;;5.3;99.9;;;;;;;;;
2021/01/29 00:05:02;;;;;;;4.63;3.8;;;5.3;99.9;;;;;;;;;
2021/01/29 00:05:16;;;;;;;4.63;3.8;;;5.3;99.9;;;;;;;;;
2021/01/29 00:05:26;;;;;;;5.87;4.17;;;5.2;99.9;;;;;;;;;
2021/01/29 00:06:04;;;;;;;5.87;4.17;;;5.2;99.9;;;;;;;;;
2021/01/29 00:06:17;;;;;;;5.87;4.17;;;5.2;99.9;;;;;;;;;
2021/01/29 00:06:27;;;;;;;6.23;4.83;;;5.2;99.9;;;;;;;;;
2021/01/29 00:07:02;;;;;;;6.23;4.83;;;5.2;99.9;;;;;;;;;
2021/01/29 00:07:08;;;;;;;6.23;4.83;;;5.2;99.9;;;;;;;;;
2021/01/29 00:07:13;;;;;;;6.23;4.83;;;5.2;99.9;;;;;;;;;
2021/01/29 00:07:29;;;;;;;4.83;4.33;;;5.2;99.9;;;;;;;;;
2021/01/29 00:07:39;;;;;;;4.83;4.33;;;5.2;99.9;;;;;;;;;
2021/01/29 00:08:02;;;;;;;4.83;4.33;;;5.2;99.9;;;;;;;;;
2021/01/29 00:08:15;;;;;;;4.83;4.33;;;5.2;99.9;;;;;;;;;
2021/01/29 00:08:30;;;;;;;5.2;4.4;;;5.2;99.9;;;;;;;;;
2021/01/29 00:08:40;;;;;;;5.2;4.4;;;5.2;99.9;;;;;;;;;
2021/01/29 00:09:02;;;;;;;5.2;4.4;;;5.2;99.9;;;;;;;;;
2021/01/29 00:09:16;;;;;;;5.2;4.4;;;5.2;99.9;;;;;;;;;
2021/01/29 00:09:26;;;;;;;5.2;4.4;;;5.2;99.9;;;;;;;;;
2021/01/29 00:09:42;;;;;;;6.03;4.43;;;5.3;99.9;;;;;;;;;
2021/01/29 00:09:54;;;;;;;6.03;4.43;;;5.3;99.9;;;;;;;;;
2021/01/29 00:10:02;;;;;;;6.03;4.43;;;5.3;99.9;;;;;;;;;
2021/01/29 00:10:12;;;;;;;6.03;4.43;;;5.3;99.9;;;;;;;;;
2021/01/29 00:10:29;;;;;;;7.1;4.53;;;5.3;99.9;;;;;;;;;
2021/01/29 00:10:43;;;;;;;7.1;4.53;;;5.3;99.9;;;;;;;;;
2021/01/29 00:10:54;;;;;;;7.1;4.53;;;5.3;99.9;;;;;;;;;
2021/01/29 00:11:02;;;;;;;7.1;4.53;;;5.3;99.9;;;;;;;;;
2021/01/29 00:11:14;;;;;;;7.1;4.53;;;5.3;99.9;;;;;;;;;
2021/01/29 00:11:29;;;;;;;5.47;4.93;;;5.2;99.9;;;;;;;;;
2021/01/29 00:11:40;;;;;;;5.47;4.93;;;5.2;99.9;;;;;;;;;
2021/01/29 00:11:55;;;;;;;5.47;4.93;;;5.2;99.9;;;;;;;;;
2021/01/29 00:12:02;;;;;;;5.47;4.93;;;5.2;99.9;;;;;;;;;
2021/01/29 00:12:05;;;;;;;5.47;4.93;;;5.2;99.9;;;;;;;;;
2021/01/29 00:12:15;;;;;;;5.47;4.93;;;5.2;99.9;;;;;;;;;
2021/01/29 00:12:26;;;;;;;5.47;4.93;;;5.2;99.9;;;;;;;;;
2021/01/29 00:12:41;;;;;;;4.97;4.4;;;5.3;99.9;;;;;;;;;
2021/01/29 00:12:56;;;;;;;4.97;4.4;;;5.3;99.9;;;;;;;;;
2021/01/29 00:13:02;;;;;;;4.97;4.4;;;5.3;99.9;;;;;;;;;
2021/01/29 00:13:07;;;;;;;4.97;4.4;;;5.3;99.9;;;;;;;;;
2021/01/29 00:13:17;;;;;;;4.97;4.4;;;5.3;99.9;;;;;;;;;
2021/01/29 00:13:27;;;;;;;4.97;4.4;;;5.3;99.9;;;;;;;;;
2021/01/29 00:13:43;;;;;;;5.6;4.57;;;5.4;99.9;;;;;;;;;
2021/01/29 00:13:53;;;;;;;5.6;4.57;;;5.4;99.9;;;;;;;;;
2021/01/29 00:14:02;;;;;;;5.6;4.57;;;5.4;99.9;;;;;;;;;
2021/01/29 00:14:08;;;;;;;5.6;4.57;;;5.4;99.9;;;;;;;;;
2021/01/29 00:14:13;;;;;;;5.6;4.57;;;5.4;99.9;;;;;;;;;
2021/01/29 00:14:29;;;;;;;5.83;4.3;;;5.4;99.9;;;;;;;;;
2021/01/29 00:14:39;;;;;;;5.83;4.3;;;5.4;99.9;;;;;;;;;
2021/01/29 00:14:54;;;;;;;5.83;4.3;;;5.4;99.9;;;;;;;;;
2021/01/29 00:15:02;;;;;;;5.83;4.3;;;5.4;99.9;;;;;;;;;
2021/01/29 00:15:09;;;;;;;5.83;4.3;;;5.4;99.9;;;;;;;;;
2021/01/29 00:15:15;;;;;;;5.83;4.3;;;5.4;99.9;;;;;;;;;
2021/01/29 00:15:30;;;;;;;4.23;3.83;;;5.4;99.9;;;;;;;;;
2021/01/29 00:15:40;;;;;;;4.23;3.83;;;5.4;99.9;;;;;;;;;
2021/01/29 00:15:56;;;;;;;4.23;3.83;;;5.4;99.9;;;;;;;;;
2021/01/29 00:16:01;;;;;;;4.23;3.83;;;5.4;99.9;;;;;;;;;
2021/01/29 00:16:06;;;;;;;4.23;3.83;;;5.4;99.9;;;;;;;;;
2021/01/29 00:16:16;;;;;;;4.23;3.83;;;5.4;99.9;;;;;;;;;
2021/01/29 00:16:26;;;;;;;4.23;3.83;;;5.4;99.9;;;;;;;;;
2021/01/29 00:16:42;;;;;;;6.8;4.5;;;5.4;99.9;;;;;;;;;
2021/01/29 00:16:52;;;;;;;6.8;4.5;;;5.4;99.9;;;;;;;;;
2021/01/29 00:17:02;;;;;;;6.8;4.5;;;5.4;99.9;;;;;;;;;
2021/01/29 00:17:07;;;;;;;6.8;4.5;;;5.4;99.9;;;;;;;;;
2021/01/29 00:17:18;;;;;;;6.8;4.5;;;5.4;99.9;;;;;;;;;
2021/01/29 00:17:28;;;;;;;6.8;4.5;;;5.4;99.9;;;;;;;;;
2021/01/29 00:17:43;;;;;;;4.7;4.2;;;5.4;99.9;;;;;;;;;
2021/01/29 00:17:53;;;;;;;4.7;4.2;;;5.4;99.9;;;;;;;;;
2021/01/29 00:18:02;;;;;;;4.7;4.2;;;5.4;99.9;;;;;;;;;
2021/01/29 00:18:09;;;;;;;4.7;4.2;;;5.4;99.9;;;;;;;;;
2021/01/29 00:18:14;;;;;;;4.7;4.2;;;5.4;99.9;;;;;;;;;
2021/01/29 00:18:29;;;;;;;4.7;4.2;;;5.4;99.9;;;;;;;;;
2021/01/29 00:18:39;;;;;;;6.13;4.37;;;5.4;99.9;;;;;;;;;
2021/01/29 00:18:55;;;;;;;6.13;4.37;;;5.4;99.9;;;;;;;;;
2021/01/29 00:19:02;;;;;;;6.13;4.37;;;5.4;99.9;;;;;;;;;
2021/01/29 00:19:05;;;;;;;6.13;4.37;;;5.4;99.9;;;;;;;;;
2021/01/29 00:19:15;;;;;;;6.13;4.37;;;5.4;99.9;;;;;;;;;
2021/01/29 00:19:31;;;;;;;5.33;4.7;;;5.4;99.9;;;;;;;;;
2021/01/29 00:19:41;;;;;;;5.33;4.7;;;5.4;99.9;;;;;;;;;
2021/01/29 00:19:56;;;;;;;5.33;4.7;;;5.4;99.9;;;;;;;;;
2021/01/29 00:20:02;;;;;;;5.33;4.7;;;5.4;99.9;;;;;;;;;
2021/01/29 00:20:07;;;;;;;5.33;4.7;;;5.4;99.9;;;;;;;;;
2021/01/29 00:20:17;;;;;;;5.33;4.7;;;5.4;99.9;;;;;;;;;
2021/01/29 00:20:27;;;;;;;5.33;4.7;;;5.4;99.9;;;;;;;;;
2021/01/29 00:20:42;;;;;;;7.17;4.3;;;5.5;99.9;;;;;;;;;
2021/01/29 00:20:53;;;;;;;7.17;4.3;;;5.5;99.9;;;;;;;;;
2021/01/29 00:21:01;;;;;;;7.17;4.3;;;5.5;99.9;;;;;;;;;
2021/01/29 00:21:08;;;;;;;7.17;4.3;;;5.5;99.9;;;;;;;;;
2021/01/29 00:21:13;;;;;;;7.17;4.3;;;5.5;99.9;;;;;;;;;
2021/01/29 00:21:28;;;;;;;7.17;4.3;;;5.5;99.9;;;;;;;;;
2021/01/29 00:21:44;;;;;;;5.33;3.9;;;5.5;99.9;;;;;;;;;
2021/01/29 00:21:54;;;;;;;5.33;3.9;;;5.5;99.9;;;;;;;;;
2021/01/29 00:22:02;;;;;;;5.33;3.9;;;5.5;99.9;;;;;;;;;
2021/01/29 00:22:09;;;;;;;5.33;3.9;;;5.5;99.9;;;;;;;;;
2021/01/29 00:22:14;;;;;;;5.33;3.9;;;5.5;99.9;;;;;;;;;
2021/01/29 00:22:30;;;;;;;5.33;3.9;;;5.5;99.9;;;;;;;;;
2021/01/29 00:22:40;;;;;;;4.83;4.13;;;5.6;99.9;;;;;;;;;
2021/01/29 00:22:56;;;;;;;4.83;4.13;;;5.6;99.9;;;;;;;;;
2021/01/29 00:23:02;;;;;;;4.83;4.13;;;5.6;99.9;;;;;;;;;
2021/01/29 00:23:06;;;;;;;4.83;4.13;;;5.6;99.9;;;;;;;;;
2021/01/29 00:23:16;;;;;;;4.83;4.13;;;5.6;99.9;;;;;;;;;
2021/01/29 00:23:26;;;;;;;4.83;4.13;;;5.6;99.9;;;;;;;;;
2021/01/29 00:23:42;;;;;;;5.67;4.27;;;5.6;99.9;;;;;;;;;
2021/01/29 00:23:57;;;;;;;5.67;4.27;;;5.6;99.9;;;;;;;;;
2021/01/29 00:24:02;;;;;;;5.67;4.27;;;5.6;99.9;;;;;;;;;
2021/01/29 00:24:07;;;;;;;5.67;4.27;;;5.6;99.9;;;;;;;;;
2021/01/29 00:24:12;;;;;;;5.67;4.27;;;5.6;99.9;;;;;;;;;
2021/01/29 00:24:28;;;;;;;5.67;4.27;;;5.6;99.9;;;;;;;;;
2021/01/29 00:24:43;;;;;;;5.77;4.7;;;5.6;99.9;;;;;;;;;
2021/01/29 00:24:53;;;;;;;5.77;4.7;;;5.6;99.9;;;;;;;;;
2021/01/29 00:25:02;;;;;;;5.77;4.7;;;5.6;99.9;;;;;;;;;
2021/01/29 00:25:09;;;;;;;5.77;4.7;;;5.6;99.9;;;;;;;;;
2021/01/29 00:25:15;;;;;;;5.77;4.7;;;5.6;99.9;;;;;;;;;
2021/01/29 00:25:29;;;;;;;5.77;4.7;;;5.6;99.9;;;;;;;;;
2021/01/29 00:25:39;;;;;;;4.63;4.23;;;5.7;99.9;;;;;;;;;
2021/01/29 00:25:55;;;;;;;4.63;4.23;;;5.7;99.9;;;;;;;;;
2021/01/29 00:26:01;;;;;;;4.63;4.23;;;5.7;99.9;;;;;;;;;
2021/01/29 00:26:10;;;;;;;4.63;4.23;;;5.7;99.9;;;;;;;;;
2021/01/29 00:26:15;;;;;;;4.63;4.23;;;5.7;99.9;;;;;;;;;
2021/01/29 00:26:25;;;;;;;4.63;4.23;;;5.7;99.9;;;;;;;;;
2021/01/29 00:26:41;;;;;;;5.17;4.33;;;5.7;99.9;;;;;;;;;
2021/01/29 00:26:56;;;;;;;5.17;4.33;;;5.7;99.9;;;;;;;;;
2021/01/29 00:27:02;;;;;;;5.17;4.33;;;5.7;99.9;;;;;;;;;
2021/01/29 00:27:06;;;;;;;5.17;4.33;;;5.7;99.9;;;;;;;;;
2021/01/29 00:27:17;;;;;;;5.17;4.33;;;5.7;99.9;;;;;;;;;
2021/01/29 00:27:32;;;;;;;5.17;4.33;;;5.7;99.9;;;;;;;;;
2021/01/29 00:27:42;;;;;;;5.27;4;;;5.6;99.9;;;;;;;;;
2021/01/29 00:27:52;;;;;;;5.27;4;;;5.6;99.9;;;;;;;;;
2021/01/29 00:28:01;;;;;;;5.27;4;;;5.6;99.9;;;;;;;;;
2021/01/29 00:28:08;;;;;;;5.27;4;;;5.6;99.9;;;;;;;;;
2021/01/29 00:28:13;;;;;;;5.27;4;;;5.6;99.9;;;;;;;;;
2021/01/29 00:28:28;;;;;;;5.27;4;;;5.6;99.9;;;;;;;;;
2021/01/29 00:28:38;;;;;;;5.57;5;;;5.6;99.9;;;;;;;;;
2021/01/29 00:28:54;;;;;;;5.57;5;;;5.6;99.9;;;;;;;;;
2021/01/29 00:29:02;;;;;;;5.57;5;;;5.6;99.9;;;;;;;;;
2021/01/29 00:29:09;;;;;;;5.57;5;;;5.6;99.9;;;;;;;;;
2021/01/29 00:29:14;;;;;;;5.57;5;;;5.6;99.9;;;;;;;;;
2021/01/29 00:29:30;;;;;;;5.57;5;;;5.6;99.9;;;;;;;;;
2021/01/29 00:29:45;;;;;;;5.8;4.2;;;5.5;99.9;;;;;;;;;
2021/01/29 00:29:55;;;;;;;5.8;4.2;;;5.5;99.9;;;;;;;;;
2021/01/29 00:30:02;;;;;;;5.8;4.2;;;5.5;99.9;;;;;;;;;
2021/01/29 00:30:06;;;;;;;5.8;4.2;;;5.5;99.9;;;;;;;;;
2021/01/29 00:30:16;;;;;;;5.8;4.2;;;5.5;99.9;;;;;;;;;
2021/01/29 00:30:26;;;;;;;5.8;4.2;;;5.5;99.9;;;;;;;;;
2021/01/29 00:30:41;;;;;;;5.5;4.7;;;5.6;99.9;;;;;;;;;
2021/01/29 00:30:52;;;;;;;5.5;4.7;;;5.6;99.9;;;;;;;;;
2021/01/29 00:31:01;;;;;;;5.5;4.7;;;5.6;99.9;;;;;;;;;
2021/01/29 00:31:07;;;;;;;5.5;4.7;;;5.6;99.9;;;;;;;;;
2021/01/29 00:31:12;;;;;;;5.5;4.7;;;5.6;99.9;;;;;;;;;
2021/01/29 00:31:28;;;;;;;5.5;4.7;;;5.6;99.9;;;;;;;;;
2021/01/29 00:31:43;;;;;;;5.23;4.5;;;5.6;99.9;;;;;;;;;
2021/01/29 00:31:58;;;;;;;5.23;4.5;;;5.6;99.9;;;;;;;;;
2021/01/29 00:32:02;;;;;;;5.23;4.5;;;5.6;99.9;;;;;;;;;
2021/01/29 00:32:08;;;;;;;5.23;4.5;;;5.6;99.9;;;;;;;;;
2021/01/29 00:32:19;;;;;;;5.23;4.5;;;5.6;99.9;;;;;;;;;
2021/01/29 00:32:29;;;;;;;5.23;4.5;;;5.6;99.9;;;;;;;;;
2021/01/29 00:32:39;;;;;;;4.83;4.13;;;5.6;99.9;;;;;;;;;
2021/01/29 00:32:54;;;;;;;4.83;4.13;;;5.6;99.9;;;;;;;;;
2021/01/29 00:33:02;;;;;;;4.83;4.13;;;5.6;99.9;;;;;;;;;
2021/01/29 00:33:05;;;;;;;4.83;4.13;;;5.6;99.9;;;;;;;;;
2021/01/29 00:33:15;;;;;;;4.83;4.13;;;5.6;99.9;;;;;;;;;
2021/01/29 00:33:25;;;;;;;4.83;4.13;;;5.6;99.9;;;;;;;;;
2021/01/29 00:33:41;;;;;;;6.03;5.03;;;5.7;99.9;;;;;;;;;
2021/01/29 00:33:56;;;;;;;6.03;5.03;;;5.7;99.9;;;;;;;;;
2021/01/29 00:34:02;;;;;;;6.03;5.03;;;5.7;99.9;;;;;;;;;
2021/01/29 00:34:11;;;;;;;6.03;5.03;;;5.7;99.9;;;;;;;;;
2021/01/29 00:34:16;;;;;;;6.03;5.03;;;5.7;99.9;;;;;;;;;
2021/01/29 00:34:32;;;;;;;6.03;5.03;;;5.7;99.9;;;;;;;;;
2021/01/29 00:34:42;;;;;;;5.37;4.37;;;5.7;99.9;;;;;;;;;
2021/01/29 00:34:52;;;;;;;5.37;4.37;;;5.7;99.9;;;;;;;;;
2021/01/29 00:35:02;;;;;;;5.37;4.37;;;5.7;99.9;;;;;;;;;
2021/01/29 00:35:08;;;;;;;5.37;4.37;;;5.7;99.9;;;;;;;;;
2021/01/29 00:35:18;;;;;;;5.37;4.37;;;5.7;99.9;;;;;;;;;
2021/01/29 00:35:33;;;;;;;5.37;4.37;;;5.7;99.9;;;;;;;;;
2021/01/29 00:35:38;;;;;;;5.73;4.33;;;5.7;99.9;;;;;;;;;
2021/01/29 00:35:54;;;;;;;5.73;4.33;;;5.7;99.9;;;;;;;;;
2021/01/29 00:36:01;;;;;;;5.73;4.33;;;5.7;99.9;;;;;;;;;
2021/01/29 00:36:09;;;;;;;5.73;4.33;;;5.7;99.9;;;;;;;;;
2021/01/29 00:36:14;;;;;;;5.73;4.33;;;5.7;99.9;;;;;;;;;
2021/01/29 00:36:30;;;;;;;5.73;4.33;;;5.7;99.9;;;;;;;;;
2021/01/29 00:36:45;;;;;;;5.7;4.3;;;5.7;99.9;;;;;;;;;
2021/01/29 00:36:55;;;;;;;5.7;4.3;;;5.7;99.9;;;;;;;;;
2021/01/29 00:37:02;;;;;;;5.7;4.3;;;5.7;99.9;;;;;;;;;
2021/01/29 00:37:05;;;;;;;5.7;4.3;;;5.7;99.9;;;;;;;;;
2021/01/29 00:37:16;;;;;;;5.7;4.3;;;5.7;99.9;;;;;;;;;
2021/01/29 00:37:31;;;;;;;5.7;4.3;;;5.7;99.9;;;;;;;;;
2021/01/29 00:37:46;;;;;;;5.03;4.3;;;5.7;99.9;;;;;;;;;
2021/01/29 00:37:51;;;;;;;5.03;4.3;;;5.7;99.9;;;;;;;;;
2021/01/29 00:38:03;;;;;;;5.03;4.3;;;5.7;99.9;;;;;;;;;
2021/01/29 00:38:07;;;;;;;5.03;4.3;;;5.7;99.9;;;;;;;;;
2021/01/29 00:38:12;;;;;;;5.03;4.3;;;5.7;99.9;;;;;;;;;
2021/01/29 00:38:27;;;;;;;5.03;4.3;;;5.7;99.9;;;;;;;;;
2021/01/29 00:38:43;;;;;;;4.63;4.13;;;5.7;99.9;;;;;;;;;
2021/01/29 00:38:58;;;;;;;4.63;4.13;;;5.7;99.9;;;;;;;;;
2021/01/29 00:39:02;;;;;;;4.63;4.13;;;5.7;99.9;;;;;;;;;
2021/01/29 00:39:08;;;;;;;4.63;4.13;;;5.7;99.9;;;;;;;;;
2021/01/29 00:39:13;;;;;;;4.63;4.13;;;5.7;99.9;;;;;;;;;
2021/01/29 00:39:29;;;;;;;4.63;4.13;;;5.7;99.9;;;;;;;;;
2021/01/29 00:39:44;;;;;;;5.27;4.3;;;5.7;99.9;;;;;;;;;
2021/01/29 00:39:59;;;;;;;5.27;4.3;;;5.7;99.9;;;;;;;;;
2021/01/29 00:40:02;;;;;;;5.27;4.3;;;5.7;99.9;;;;;;;;;
2021/01/29 00:40:05;;;;;;;5.27;4.3;;;5.7;99.9;;;;;;;;;
2021/01/29 00:40:15;;;;;;;5.27;4.3;;;5.7;99.9;;;;;;;;;
2021/01/29 00:40:25;;;;;;;5.27;4.3;;;5.7;99.9;;;;;;;;;
2021/01/29 00:40:41;;;;;;;4.97;4.03;;;5.7;99.9;;;;;;;;;
2021/01/29 00:40:56;;;;;;;4.97;4.03;;;5.7;99.9;;;;;;;;;
2021/01/29 00:41:01;;;;;;;4.97;4.03;;;5.7;99.9;;;;;;;;;
2021/01/29 00:41:11;;;;;;;4.97;4.03;;;5.7;99.9;;;;;;;;;
2021/01/29 00:41:21;;;;;;;4.97;4.03;;;5.7;99.9;;;;;;;;;
2021/01/29 00:41:26;;;;;;;4.97;4.03;;;5.7;99.9;;;;;;;;;
2021/01/29 00:41:42;;;;;;;5.27;3.93;;;5.6;99.9;;;;;;;;;
2021/01/29 00:41:57;;;;;;;5.27;3.93;;;5.6;99.9;;;;;;;;;
2021/01/29 00:42:02;;;;;;;5.27;3.93;;;5.6;99.9;;;;;;;;;
2021/01/29 00:42:13;;;;;;;5.27;3.93;;;5.6;99.9;;;;;;;;;
2021/01/29 00:42:18;;;;;;;5.27;3.93;;;5.6;99.9;;;;;;;;;
2021/01/29 00:42:28;;;;;;;5.27;3.93;;;5.6;99.9;;;;;;;;;
2021/01/29 00:42:38;;;;;;;5.07;4.57;;;5.7;99.9;;;;;;;;;
2021/01/29 00:42:53;;;;;;;5.07;4.57;;;5.7;99.9;;;;;;;;;
2021/01/29 00:43:01;;;;;;;5.07;4.57;;;5.7;99.9;;;;;;;;;
2021/01/29 00:43:09;;;;;;;5.07;4.57;;;5.7;99.9;;;;;;;;;
2021/01/29 00:43:14;;;;;;;5.07;4.57;;;5.7;99.9;;;;;;;;;
2021/01/29 00:43:34;;;;;;;5.07;4.57;;;5.7;99.9;;;;;;;;;
2021/01/29 00:43:40;;;;;;;5.73;4.5;;;5.7;99.9;;;;;;;;;
2021/01/29 00:43:55;;;;;;;5.73;4.5;;;5.7;99.9;;;;;;;;;
2021/01/29 00:44:02;;;;;;;5.73;4.5;;;5.7;99.9;;;;;;;;;
2021/01/29 00:44:10;;;;;;;5.73;4.5;;;5.7;99.9;;;;;;;;;
2021/01/29 00:44:15;;;;;;;5.73;4.5;;;5.7;99.9;;;;;;;;;
2021/01/29 00:44:31;;;;;;;5.73;4.5;;;5.7;99.9;;;;;;;;;
2021/01/29 00:44:41;;;;;;;4.5;4;;;5.7;99.9;;;;;;;;;
2021/01/29 00:44:51;;;;;;;4.5;4;;;5.7;99.9;;;;;;;;;
2021/01/29 00:45:01;;;;;;;4.5;4;;;5.7;99.9;;;;;;;;;
2021/01/29 00:45:07;;;;;;;4.5;4;;;5.7;99.9;;;;;;;;;
2021/01/29 00:45:12;;;;;;;4.5;4;;;5.7;99.9;;;;;;;;;
2021/01/29 00:45:27;;;;;;;4.5;4;;;5.7;99.9;;;;;;;;;
2021/01/29 00:45:48;;;;;;;6.1;4.13;;;5.6;99.9;;;;;;;;;
2021/01/29 00:45:53;;;;;;;6.1;4.13;;;5.6;99.9;;;;;;;;;
2021/01/29 00:46:02;;;;;;;6.1;4.13;;;5.6;99.9;;;;;;;;;
2021/01/29 00:46:08;;;;;;;6.1;4.13;;;5.6;99.9;;;;;;;;;
2021/01/29 00:46:13;;;;;;;6.1;4.13;;;5.6;99.9;;;;;;;;;
2021/01/29 00:46:29;;;;;;;6.1;4.13;;;5.6;99.9;;;;;;;;;
2021/01/29 00:46:44;;;;;;;5.47;4.2;;;5.7;99.9;;;;;;;;;
2021/01/29 00:46:54;;;;;;;5.47;4.2;;;5.7;99.9;;;;;;;;;
2021/01/29 00:47:02;;;;;;;5.47;4.2;;;5.7;99.9;;;;;;;;;
2021/01/29 00:47:04;;;;;;;5.47;4.2;;;5.7;99.9;;;;;;;;;
2021/01/29 00:47:15;;;;;;;5.47;4.2;;;5.7;99.9;;;;;;;;;
2021/01/29 00:47:25;;;;;;;5.47;4.2;;;5.7;99.9;;;;;;;;;
2021/01/29 00:47:40;;;;;;;5.27;4.17;;;5.7;99.9;;;;;;;;;
2021/01/29 00:48:01;;;;;;;5.27;4.17;;;5.7;99.9;;;;;;;;;
2021/01/29 00:48:01;;;;;;;5.27;4.17;;;5.7;99.9;;;;;;;;;
2021/01/29 00:48:06;;;;;;;5.27;4.17;;;5.7;99.9;;;;;;;;;
2021/01/29 00:48:16;;;;;;;5.27;4.17;;;5.7;99.9;;;;;;;;;
2021/01/29 00:48:26;;;;;;;5.27;4.17;;;5.7;99.9;;;;;;;;;
2021/01/29 00:48:42;;;;;;;5.43;4.4;;;5.7;99.9;;;;;;;;;
2021/01/29 00:48:58;;;;;;;5.43;4.4;;;5.7;99.9;;;;;;;;;
2021/01/29 00:49:02;;;;;;;5.43;4.4;;;5.7;99.9;;;;;;;;;
2021/01/29 00:49:07;;;;;;;5.43;4.4;;;5.7;99.9;;;;;;;;;
2021/01/29 00:49:12;;;;;;;5.43;4.4;;;5.7;99.9;;;;;;;;;
2021/01/29 00:49:28;;;;;;;5.43;4.4;;;5.7;99.9;;;;;;;;;
2021/01/29 00:49:38;;;;;;;5.43;4.4;;;5.7;99.9;;;;;;;;;
2021/01/29 00:49:53;;;;;;;5.2;4.17;;;5.8;99.9;;;;;;;;;
2021/01/29 00:50:02;;;;;;;5.2;4.17;;;5.8;99.9;;;;;;;;;
2021/01/29 00:50:14;;;;;;;5.2;4.17;;;5.8;99.9;;;;;;;;;
2021/01/29 00:50:14;;;;;;;5.2;4.17;;;5.8;99.9;;;;;;;;;
2021/01/29 00:50:29;;;;;;;5.2;4.17;;;5.8;99.9;;;;;;;;;
2021/01/29 00:50:39;;;;;;;4.9;4.5;;;5.8;99.9;;;;;;;;;
2021/01/29 00:50:55;;;;;;;4.9;4.5;;;5.8;99.9;;;;;;;;;
2021/01/29 00:51:01;;;;;;;4.9;4.5;;;5.8;99.9;;;;;;;;;
2021/01/29 00:51:10;;;;;;;4.9;4.5;;;5.8;99.9;;;;;;;;;
2021/01/29 00:51:15;;;;;;;4.9;4.5;;;5.8;99.9;;;;;;;;;
2021/01/29 00:51:26;;;;;;;4.9;4.5;;;5.8;99.9;;;;;;;;;
2021/01/29 00:51:41;;;;;;;6.5;4.63;;;5.8;99.9;;;;;;;;;
2021/01/29 00:51:51;;;;;;;6.5;4.63;;;5.8;99.9;;;;;;;;;
2021/01/29 00:52:02;;;;;;;6.5;4.63;;;5.8;99.9;;;;;;;;;
2021/01/29 00:52:06;;;;;;;6.5;4.63;;;5.8;99.9;;;;;;;;;
2021/01/29 00:52:17;;;;;;;6.5;4.63;;;5.8;99.9;;;;;;;;;
2021/01/29 00:52:27;;;;;;;6.5;4.63;;;5.8;99.9;;;;;;;;;
2021/01/29 00:52:42;;;;;;;7.13;4.73;;;5.8;99.9;;;;;;;;;
2021/01/29 00:52:53;;;;;;;7.13;4.73;;;5.8;99.9;;;;;;;;;
2021/01/29 00:53:02;;;;;;;7.13;4.73;;;5.8;99.9;;;;;;;;;
2021/01/29 00:53:08;;;;;;;7.13;4.73;;;5.8;99.9;;;;;;;;;
2021/01/29 00:53:13;;;;;;;7.13;4.73;;;5.8;99.9;;;;;;;;;
2021/01/29 00:53:28;;;;;;;7.13;4.73;;;5.8;99.9;;;;;;;;;
2021/01/29 00:53:39;;;;;;;7.13;4.73;;;5.8;99.9;;;;;;;;;
2021/01/29 00:53:54;;;;;;;4.87;4.33;;;5.9;99.9;;;;;;;;;
2021/01/29 00:54:02;;;;;;;4.87;4.33;;;5.9;99.9;;;;;;;;;
2021/01/29 00:54:04;;;;;;;4.87;4.33;;;5.9;99.9;;;;;;;;;
2021/01/29 00:54:14;;;;;;;4.87;4.33;;;5.9;99.9;;;;;;;;;
2021/01/29 00:54:30;;;;;;;4.87;4.33;;;5.9;99.9;;;;;;;;;
2021/01/29 00:54:40;;;;;;;5.37;4.4;;;5.9;99.9;;;;;;;;;
2021/01/29 00:54:55;;;;;;;5.37;4.4;;;5.9;99.9;;;;;;;;;
2021/01/29 00:55:02;;;;;;;5.37;4.4;;;5.9;99.9;;;;;;;;;
2021/01/29 00:55:06;;;;;;;5.37;4.4;;;5.9;99.9;;;;;;;;;
2021/01/29 00:55:16;;;;;;;5.37;4.4;;;5.9;99.9;;;;;;;;;
2021/01/29 00:55:26;;;;;;;5.37;4.4;;;5.9;99.9;;;;;;;;;
2021/01/29 00:55:41;;;;;;;5;4.5;;;5.9;99.9;;;;;;;;;
2021/01/29 00:55:52;;;;;;;5;4.5;;;5.9;99.9;;;;;;;;;
2021/01/29 00:56:02;;;;;;;5;4.5;;;5.9;99.9;;;;;;;;;
2021/01/29 00:56:07;;;;;;;5;4.5;;;5.9;99.9;;;;;;;;;
2021/01/29 00:56:12;;;;;;;5;4.5;;;5.9;99.9;;;;;;;;;
2021/01/29 00:56:28;;;;;;;5;4.5;;;5.9;99.9;;;;;;;;;
2021/01/29 00:56:43;;;;;;;6.57;4.1;;;6;99.9;;;;;;;;;
2021/01/29 00:56:53;;;;;;;6.57;4.1;;;6;99.9;;;;;;;;;
2021/01/29 00:57:02;;;;;;;6.57;4.1;;;6;99.9;;;;;;;;;
2021/01/29 00:57:11;;;;;;;6.57;4.1;;;6;99.9;;;;;;;;;
2021/01/29 00:57:14;;;;;;;6.57;4.1;;;6;99.9;;;;;;;;;
2021/01/29 00:57:29;;;;;;;6.57;4.1;;;6;99.9;;;;;;;;;
2021/01/29 00:57:39;;;;;;;6.57;4.1;;;6;99.9;;;;;;;;;
2021/01/29 00:57:55;;;;;;;4.5;4.1;;;6;99.9;;;;;;;;;
2021/01/29 00:58:01;;;;;;;4.5;4.1;;;6;99.9;;;;;;;;;
2021/01/29 00:58:05;;;;;;;4.5;4.1;;;6;99.9;;;;;;;;;
2021/01/29 00:58:15;;;;;;;4.5;4.1;;;6;99.9;;;;;;;;;
2021/01/29 00:58:25;;;;;;;4.5;4.1;;;6;99.9;;;;;;;;;
2021/01/29 00:58:41;;;;;;;4.5;4.1;;;6;99.9;;;;;;;;;
2021/01/29 00:58:56;;;;;;;7.33;4.87;;;5.9;99.9;;;;;;;;;
2021/01/29 00:59:02;;;;;;;7.33;4.87;;;5.9;99.9;;;;;;;;;
2021/01/29 00:59:06;;;;;;;7.33;4.87;;;5.9;99.9;;;;;;;;;
2021/01/29 00:59:16;;;;;;;7.33;4.87;;;5.9;99.9;;;;;;;;;
2021/01/29 00:59:28;;;;;;;7.33;4.87;;;5.9;99.9;;;;;;;;;
2021/01/29 00:59:42;;;;;;;5.4;4.7;;;6;99.9;;;;;;;;;
2021/01/29 00:59:52;;;;;;;5.4;4.7;;;6;99.9;;;;;;;;;
2021/01/29 01:00:01;;;;;;;5.4;4.7;;;6;99.9;;;;;;;;;
2021/01/29 01:00:08;;;;;;;5.4;4.7;;;6;99.9;;;;;;;;;
2021/01/29 01:00:13;;;;;;;5.4;4.7;;;6;99.9;;;;;;;;;
2021/01/29 01:00:28;;;;;;;5.4;4.7;;;6;99.9;;;;;;;;;
2021/01/29 01:00:38;;;;;;;5.4;4.7;;;6;99.9;;;;;;;;;
2021/01/29 01:00:54;;;;;;;5.27;4.37;;;6;99.9;;;;;;;;;
2021/01/29 01:01:02;;;;;;;5.27;4.37;;;6;99.9;;;;;;;;;
2021/01/29 01:01:09;;;;;;;5.27;4.37;;;6;99.9;;;;;;;;;
2021/01/29 01:01:14;;;;;;;5.27;4.37;;;6;99.9;;;;;;;;;
2021/01/29 01:01:30;;;;;;;5.27;4.37;;;6;99.9;;;;;;;;;
2021/01/29 01:01:40;;;;;;;5.27;4.37;;;6;99.9;;;;;;;;;
2021/01/29 01:01:55;;;;;;;4.93;4.4;;;6;99.9;;;;;;;;;
2021/01/29 01:02:02;;;;;;;4.93;4.4;;;6;99.9;;;;;;;;;
2021/01/29 01:02:06;;;;;;;4.93;4.4;;;6;99.9;;;;;;;;;
2021/01/29 01:02:16;;;;;;;4.93;4.4;;;6;99.9;;;;;;;;;
2021/01/29 01:02:26;;;;;;;4.93;4.4;;;6;99.9;;;;;;;;;
2021/01/29 01:02:41;;;;;;;4.93;4.4;;;6;99.9;;;;;;;;;
2021/01/29 01:02:52;;;;;;;4.7;4.17;;;6;99.9;;;;;;;;;
2021/01/29 01:03:01;;;;;;;4.7;4.17;;;6;99.9;;;;;;;;;
2021/01/29 01:03:07;;;;;;;4.7;4.17;;;6;99.9;;;;;;;;;
2021/01/29 01:03:12;;;;;;;4.7;4.17;;;6;99.9;;;;;;;;;
2021/01/29 01:03:28;;;;;;;4.7;4.17;;;6;99.9;;;;;;;;;
2021/01/29 01:03:43;;;;;;;4.7;4.17;;;6;99.9;;;;;;;;;
2021/01/29 01:03:53;;;;;;;6.67;4.7;;;6;99.9;;;;;;;;;
2021/01/29 01:04:02;;;;;;;6.67;4.7;;;6;99.9;;;;;;;;;
2021/01/29 01:04:08;;;;;;;6.67;4.7;;;6;99.9;;;;;;;;;
2021/01/29 01:04:13;;;;;;;6.67;4.7;;;6;99.9;;;;;;;;;
2021/01/29 01:04:29;;;;;;;6.67;4.7;;;6;99.9;;;;;;;;;
2021/01/29 01:04:39;;;;;;;6.67;4.7;;;6;99.9;;;;;;;;;
2021/01/29 01:04:55;;;;;;;5.53;4.13;;;6.1;99.9;;;;;;;;;
2021/01/29 01:05:02;;;;;;;5.53;4.13;;;6.1;99.9;;;;;;;;;
2021/01/29 01:05:05;;;;;;;5.53;4.13;;;6.1;99.9;;;;;;;;;
2021/01/29 01:05:15;;;;;;;5.53;4.13;;;6.1;99.9;;;;;;;;;
2021/01/29 01:05:25;;;;;;;5.53;4.13;;;6.1;99.9;;;;;;;;;
2021/01/29 01:05:42;;;;;;;5.53;4.13;;;6.1;99.9;;;;;;;;;
2021/01/29 01:05:56;;;;;;;4.87;4.47;;;6.1;99.9;;;;;;;;;
2021/01/29 01:06:02;;;;;;;4.87;4.47;;;6.1;99.9;;;;;;;;;
2021/01/29 01:06:06;;;;;;;4.87;4.47;;;6.1;99.9;;;;;;;;;
2021/01/29 01:06:16;;;;;;;4.87;4.47;;;6.1;99.9;;;;;;;;;
2021/01/29 01:06:27;;;;;;;4.87;4.47;;;6.1;99.9;;;;;;;;;
2021/01/29 01:06:42;;;;;;;4.87;4.47;;;6.1;99.9;;;;;;;;;
2021/01/29 01:06:52;;;;;;;5.03;4.5;;;6.1;99.9;;;;;;;;;
2021/01/29 01:07:02;;;;;;;5.03;4.5;;;6.1;99.9;;;;;;;;;
2021/01/29 01:07:08;;;;;;;5.03;4.5;;;6.1;99.9;;;;;;;;;
2021/01/29 01:07:18;;;;;;;5.03;4.5;;;6.1;99.9;;;;;;;;;
2021/01/29 01:07:28;;;;;;;5.03;4.5;;;6.1;99.9;;;;;;;;;
2021/01/29 01:07:38;;;;;;;5.03;4.5;;;6.1;99.9;;;;;;;;;
2021/01/29 01:07:54;;;;;;;5.07;4.47;;;6.1;99.9;;;;;;;;;
2021/01/29 01:08:01;;;;;;;5.07;4.47;;;6.1;99.9;;;;;;;;;
2021/01/29 01:08:09;;;;;;;5.07;4.47;;;6.1;99.9;;;;;;;;;
2021/01/29 01:08:14;;;;;;;5.07;4.47;;;6.1;99.9;;;;;;;;;
2021/01/29 01:08:30;;;;;;;5.07;4.47;;;6.1;99.9;;;;;;;;;
2021/01/29 01:08:40;;;;;;;5.07;4.47;;;6.1;99.9;;;;;;;;;
2021/01/29 01:08:55;;;;;;;5.9;4.87;;;6.1;99.9;;;;;;;;;
2021/01/29 01:09:02;;;;;;;5.9;4.87;;;6.1;99.9;;;;;;;;;
2021/01/29 01:09:05;;;;;;;5.9;4.87;;;6.1;99.9;;;;;;;;;
2021/01/29 01:09:16;;;;;;;5.9;4.87;;;6.1;99.9;;;;;;;;;
2021/01/29 01:09:31;;;;;;;5.9;4.87;;;6.1;99.9;;;;;;;;;
2021/01/29 01:09:41;;;;;;;5.9;4.87;;;6.1;99.9;;;;;;;;;
2021/01/29 01:09:51;;;;;;;5.47;4.43;;;6.1;99.9;;;;;;;;;
2021/01/29 01:10:01;;;;;;;5.47;4.43;;;6.1;99.9;;;;;;;;;
2021/01/29 01:10:07;;;;;;;5.47;4.43;;;6.1;99.9;;;;;;;;;
2021/01/29 01:10:12;;;;;;;5.47;4.43;;;6.1;99.9;;;;;;;;;
2021/01/29 01:10:27;;;;;;;5.47;4.43;;;6.1;99.9;;;;;;;;;
2021/01/29 01:10:43;;;;;;;5.47;4.43;;;6.1;99.9;;;;;;;;;
2021/01/29 01:10:53;;;;;;;5.33;4.7;;;6.1;99.9;;;;;;;;;
2021/01/29 01:11:02;;;;;;;5.33;4.7;;;6.1;99.9;;;;;;;;;
2021/01/29 01:11:08;;;;;;;5.33;4.7;;;6.1;99.9;;;;;;;;;
2021/01/29 01:11:13;;;;;;;5.33;4.7;;;6.1;99.9;;;;;;;;;
2021/01/29 01:11:29;;;;;;;5.33;4.7;;;6.1;99.9;;;;;;;;;
2021/01/29 01:11:44;;;;;;;5.33;4.7;;;6.1;99.9;;;;;;;;;
2021/01/29 01:11:54;;;;;;;5.27;4.7;;;6.1;99.9;;;;;;;;;
2021/01/29 01:12:02;;;;;;;5.27;4.7;;;6.1;99.9;;;;;;;;;
2021/01/29 01:12:05;;;;;;;5.27;4.7;;;6.1;99.9;;;;;;;;;
2021/01/29 01:12:15;;;;;;;5.27;4.7;;;6.1;99.9;;;;;;;;;
2021/01/29 01:12:25;;;;;;;5.27;4.7;;;6.1;99.9;;;;;;;;;
2021/01/29 01:12:40;;;;;;;5.27;4.7;;;6.1;99.9;;;;;;;;;
2021/01/29 01:12:56;;;;;;;4.7;4.2;;;6.1;99.9;;;;;;;;;
2021/01/29 01:13:01;;;;;;;4.7;4.2;;;6.1;99.9;;;;;;;;;
2021/01/29 01:13:06;;;;;;;4.7;4.2;;;6.1;99.9;;;;;;;;;
2021/01/29 01:13:16;;;;;;;4.7;4.2;;;6.1;99.9;;;;;;;;;
2021/01/29 01:13:26;;;;;;;4.7;4.2;;;6.1;99.9;;;;;;;;;
2021/01/29 01:13:42;;;;;;;4.7;4.2;;;6.1;99.9;;;;;;;;;
2021/01/29 01:13:57;;;;;;;5.4;4.4;;;6.1;99.9;;;;;;;;;
2021/01/29 01:14:02;;;;;;;5.4;4.4;;;6.1;99.9;;;;;;;;;
2021/01/29 01:14:07;;;;;;;5.4;4.4;;;6.1;99.9;;;;;;;;;
2021/01/29 01:14:13;;;;;;;5.4;4.4;;;6.1;99.9;;;;;;;;;
2021/01/29 01:14:28;;;;;;;5.4;4.4;;;6.1;99.9;;;;;;;;;
2021/01/29 01:14:38;;;;;;;5.4;4.4;;;6.1;99.9;;;;;;;;;
2021/01/29 01:14:53;;;;;;;8.6;4.9;;;6.1;99.9;;;;;;;;;
2021/01/29 01:15:01;;;;;;;8.6;4.9;;;6.1;99.9;;;;;;;;;
2021/01/29 01:15:09;;;;;;;8.6;4.9;;;6.1;99.9;;;;;;;;;
2021/01/29 01:15:14;;;;;;;8.6;4.9;;;6.1;99.9;;;;;;;;;
2021/01/29 01:15:29;;;;;;;8.6;4.9;;;6.1;99.9;;;;;;;;;
2021/01/29 01:15:40;;;;;;;8.6;4.9;;;6.1;99.9;;;;;;;;;
2021/01/29 01:15:55;;;;;;;5.47;4.4;;;6.1;99.9;;;;;;;;;
2021/01/29 01:16:02;;;;;;;5.47;4.4;;;6.1;99.9;;;;;;;;;
2021/01/29 01:16:10;;;;;;;5.47;4.4;;;6.1;99.9;;;;;;;;;
2021/01/29 01:16:15;;;;;;;5.47;4.4;;;6.1;99.9;;;;;;;;;
2021/01/29 01:16:26;;;;;;;5.47;4.4;;;6.1;99.9;;;;;;;;;
2021/01/29 01:16:41;;;;;;;5.47;4.4;;;6.1;99.9;;;;;;;;;
2021/01/29 01:16:51;;;;;;;5.4;4.43;;;6.1;99.9;;;;;;;;;
2021/01/29 01:17:02;;;;;;;5.4;4.43;;;6.1;99.9;;;;;;;;;
2021/01/29 01:17:07;;;;;;;5.4;4.43;;;6.1;99.9;;;;;;;;;
2021/01/29 01:17:17;;;;;;;5.4;4.43;;;6.1;99.9;;;;;;;;;
2021/01/29 01:17:32;;;;;;;5.4;4.43;;;6.1;99.9;;;;;;;;;